sensor_id;sensor_type;location;lat;lon;timestamp;temperature;humidity
2867;DHT22;1441;48.886;8.728;2022-10-16T00:00:30;16.20;99.90
2867;DHT22;1441;48.886;8.728;2022-10-16T00:02:55;16.20;99.90
2867;DHT22;1441;48.886;8.728;2022-10-16T00:05:21;16.20;99.90
2867;DHT22;1441;48.886;8.728;2022-10-16T00:07:46;16.20;99.90
2867;DHT22;1441;48.886;8.728;2022-10-16T00:10:12;16.20;99.90
2867;DHT22;1441;48.886;8.728;2022-10-16T00:12:38;16.20;99.90
2867;DHT22;1441;48.886;8.728;2022-10-16T00:15:03;16.20;99.90
2867;DHT22;1441;48.886;8.728;2022-10-16T00:17:29;16.20;99.90
2867;DHT22;1441;48.886;8.728;2022-10-16T00:19:55;16.20;99.90
2867;DHT22;1441;48.886;8.728;2022-10-16T00:22:21;16.20;99.90
2867;DHT22;1441;48.886;8.728;2022-10-16T00:24:46;16.20;99.90
2867;DHT22;1441;48.886;8.728;2022-10-16T00:27:12;16.20;99.90
2867;DHT22;1441;48.886;8.728;2022-10-16T00:29:37;16.30;99.90
2867;DHT22;1441;48.886;8.728;2022-10-16T00:32:03;16.40;99.90
2867;DHT22;1441;48.886;8.728;2022-10-16T00:34:28;16.40;99.90
2867;DHT22;1441;48.886;8.728;2022-10-16T00:36:54;16.50;99.90
2867;DHT22;1441;48.886;8.728;2022-10-16T00:39:19;16.50;99.90
2867;DHT22;1441;48.886;8.728;2022-10-16T00:41:45;16.50;99.90
2867;DHT22;1441;48.886;8.728;2022-10-16T00:47:38;16.50;99.90
2867;DHT22;1441;48.886;8.728;2022-10-16T00:50:30;16.60;99.90
2867;DHT22;1441;48.886;8.728;2022-10-16T00:52:58;16.50;99.90
2867;DHT22;1441;48.886;8.728;2022-10-16T00:55:24;16.50;99.90
2867;DHT22;1441;48.886;8.728;2022-10-16T00:57:51;16.50;99.90
2867;DHT22;1441;48.886;8.728;2022-10-16T01:00:20;16.50;99.90
2867;DHT22;1441;48.886;8.728;2022-10-16T01:03:00;16.50;99.90
2867;DHT22;1441;48.886;8.728;2022-10-16T01:05:46;16.50;99.90
2867;DHT22;1441;48.886;8.728;2022-10-16T01:08:21;16.50;99.90
2867;DHT22;1441;48.886;8.728;2022-10-16T01:10:57;16.40;99.90
2867;DHT22;1441;48.886;8.728;2022-10-16T01:13:30;16.40;99.90
2867;DHT22;1441;48.886;8.728;2022-10-16T01:16:13;16.40;99.90
2867;DHT22;1441;48.886;8.728;2022-10-16T01:18:43;16.30;99.90
2867;DHT22;1441;48.886;8.728;2022-10-16T01:21:16;16.30;99.90
2867;DHT22;1441;48.886;8.728;2022-10-16T01:24:02;16.40;99.90
2867;DHT22;1441;48.886;8.728;2022-10-16T01:29:18;16.40;99.90
2867;DHT22;1441;48.886;8.728;2022-10-16T01:31:50;16.40;99.90
2867;DHT22;1441;48.886;8.728;2022-10-16T01:34:25;16.40;99.90
2867;DHT22;1441;48.886;8.728;2022-10-16T01:37:00;16.40;99.90
2867;DHT22;1441;48.886;8.728;2022-10-16T01:39:30;16.40;99.90
2867;DHT22;1441;48.886;8.728;2022-10-16T01:42:03;16.40;99.90
2867;DHT22;1441;48.886;8.728;2022-10-16T01:44:32;16.40;99.90
2867;DHT22;1441;48.886;8.728;2022-10-16T01:46:59;16.40;99.90
2867;DHT22;1441;48.886;8.728;2022-10-16T01:49:29;16.50;99.90
2867;DHT22;1441;48.886;8.728;2022-10-16T01:51:59;16.50;99.90
2867;DHT22;1441;48.886;8.728;2022-10-16T01:54:31;16.50;99.90
2867;DHT22;1441;48.886;8.728;2022-10-16T01:56:58;16.50;99.90
2867;DHT22;1441;48.886;8.728;2022-10-16T01:59:26;16.40;99.90
2867;DHT22;1441;48.886;8.728;2022-10-16T02:02:00;16.50;99.90
2867;DHT22;1441;48.886;8.728;2022-10-16T02:04:38;16.40;99.90
2867;DHT22;1441;48.886;8.728;2022-10-16T02:07:05;16.40;99.90
2867;DHT22;1441;48.886;8.728;2022-10-16T02:09:33;16.30;99.90
2867;DHT22;1441;48.886;8.728;2022-10-16T02:12:03;16.30;99.90
2867;DHT22;1441;48.886;8.728;2022-10-16T02:14:32;16.30;99.90
2867;DHT22;1441;48.886;8.728;2022-10-16T02:16:58;16.20;99.90
2867;DHT22;1441;48.886;8.728;2022-10-16T02:19:23;16.20;99.90
2867;DHT22;1441;48.886;8.728;2022-10-16T02:21:56;16.20;99.90
2867;DHT22;1441;48.886;8.728;2022-10-16T02:24:32;16.20;99.90
2867;DHT22;1441;48.886;8.728;2022-10-16T02:29:55;16.20;99.90
2867;DHT22;1441;48.886;8.728;2022-10-16T02:32:27;16.20;99.90
2867;DHT22;1441;48.886;8.728;2022-10-16T02:34:55;16.10;99.90
2867;DHT22;1441;48.886;8.728;2022-10-16T02:37:21;16.10;99.90
2867;DHT22;1441;48.886;8.728;2022-10-16T02:39:47;16.10;99.90
2867;DHT22;1441;48.886;8.728;2022-10-16T02:42:13;16.10;99.90
2867;DHT22;1441;48.886;8.728;2022-10-16T02:44:39;16.10;99.90
2867;DHT22;1441;48.886;8.728;2022-10-16T02:47:05;16.10;99.90
2867;DHT22;1441;48.886;8.728;2022-10-16T02:49:30;16.10;99.90
2867;DHT22;1441;48.886;8.728;2022-10-16T02:51:56;16.10;99.90
2867;DHT22;1441;48.886;8.728;2022-10-16T02:54:21;16.10;99.90
2867;DHT22;1441;48.886;8.728;2022-10-16T02:56:47;16.10;99.90
2867;DHT22;1441;48.886;8.728;2022-10-16T02:59:12;16.10;99.90
2867;DHT22;1441;48.886;8.728;2022-10-16T03:01:38;16.00;99.90
2867;DHT22;1441;48.886;8.728;2022-10-16T03:04:04;16.00;99.90
2867;DHT22;1441;48.886;8.728;2022-10-16T03:06:29;16.00;99.90
2867;DHT22;1441;48.886;8.728;2022-10-16T03:08:55;16.00;99.90
2867;DHT22;1441;48.886;8.728;2022-10-16T03:11:20;16.10;99.90
2867;DHT22;1441;48.886;8.728;2022-10-16T03:13:46;16.10;99.90
2867;DHT22;1441;48.886;8.728;2022-10-16T03:16:11;16.10;99.90
2867;DHT22;1441;48.886;8.728;2022-10-16T03:18:37;16.10;99.90
2867;DHT22;1441;48.886;8.728;2022-10-16T03:21:02;16.20;99.90
2867;DHT22;1441;48.886;8.728;2022-10-16T03:23:28;16.20;99.90
2867;DHT22;1441;48.886;8.728;2022-10-16T03:25:54;16.20;99.90
2867;DHT22;1441;48.886;8.728;2022-10-16T03:28:19;16.20;99.90
2867;DHT22;1441;48.886;8.728;2022-10-16T03:30:45;16.10;99.90
2867;DHT22;1441;48.886;8.728;2022-10-16T03:33:11;16.10;99.90
2867;DHT22;1441;48.886;8.728;2022-10-16T03:35:36;16.10;99.90
2867;DHT22;1441;48.886;8.728;2022-10-16T03:38:02;16.10;99.90
2867;DHT22;1441;48.886;8.728;2022-10-16T03:40:27;16.10;99.90
2867;DHT22;1441;48.886;8.728;2022-10-16T03:42:53;16.20;99.90
2867;DHT22;1441;48.886;8.728;2022-10-16T03:45:22;16.20;99.90
2867;DHT22;1441;48.886;8.728;2022-10-16T03:47:48;16.20;99.90
2867;DHT22;1441;48.886;8.728;2022-10-16T03:50:13;16.10;99.90
2867;DHT22;1441;48.886;8.728;2022-10-16T03:52:39;16.10;99.90
2867;DHT22;1441;48.886;8.728;2022-10-16T03:55:05;16.10;99.90
2867;DHT22;1441;48.886;8.728;2022-10-16T03:57:31;16.10;99.90
2867;DHT22;1441;48.886;8.728;2022-10-16T03:59:56;16.20;99.90
2867;DHT22;1441;48.886;8.728;2022-10-16T04:02:22;16.20;99.90
2867;DHT22;1441;48.886;8.728;2022-10-16T04:04:47;16.20;99.90
2867;DHT22;1441;48.886;8.728;2022-10-16T04:07:13;16.20;99.90
2867;DHT22;1441;48.886;8.728;2022-10-16T04:09:38;16.20;99.90
2867;DHT22;1441;48.886;8.728;2022-10-16T04:12:04;16.20;99.90
2867;DHT22;1441;48.886;8.728;2022-10-16T04:14:29;16.10;99.90
2867;DHT22;1441;48.886;8.728;2022-10-16T04:16:55;16.10;99.90
2867;DHT22;1441;48.886;8.728;2022-10-16T04:19:20;16.10;99.90
2867;DHT22;1441;48.886;8.728;2022-10-16T04:21:46;16.20;99.90
2867;DHT22;1441;48.886;8.728;2022-10-16T04:24:12;16.20;99.90
2867;DHT22;1441;48.886;8.728;2022-10-16T04:26:38;16.20;99.90
2867;DHT22;1441;48.886;8.728;2022-10-16T04:29:03;16.10;99.90
2867;DHT22;1441;48.886;8.728;2022-10-16T04:31:29;16.10;99.90
2867;DHT22;1441;48.886;8.728;2022-10-16T04:33:55;16.10;99.90
2867;DHT22;1441;48.886;8.728;2022-10-16T04:36:20;16.20;99.90
2867;DHT22;1441;48.886;8.728;2022-10-16T04:38:46;16.20;99.90
2867;DHT22;1441;48.886;8.728;2022-10-16T04:41:11;16.20;99.90
2867;DHT22;1441;48.886;8.728;2022-10-16T04:43:37;16.20;99.90
2867;DHT22;1441;48.886;8.728;2022-10-16T04:46:02;16.20;99.90
2867;DHT22;1441;48.886;8.728;2022-10-16T04:48:30;16.20;99.90
2867;DHT22;1441;48.886;8.728;2022-10-16T04:50:55;16.20;99.90
2867;DHT22;1441;48.886;8.728;2022-10-16T04:53:21;16.00;99.90
2867;DHT22;1441;48.886;8.728;2022-10-16T04:55:47;15.90;99.90
2867;DHT22;1441;48.886;8.728;2022-10-16T04:58:12;15.80;99.90
2867;DHT22;1441;48.886;8.728;2022-10-16T05:00:38;15.80;99.90
2867;DHT22;1441;48.886;8.728;2022-10-16T05:03:04;15.80;99.90
2867;DHT22;1441;48.886;8.728;2022-10-16T05:05:32;15.90;99.90
2867;DHT22;1441;48.886;8.728;2022-10-16T05:07:58;15.90;99.90
2867;DHT22;1441;48.886;8.728;2022-10-16T05:10:24;15.80;99.90
2867;DHT22;1441;48.886;8.728;2022-10-16T05:12:49;15.80;99.90
2867;DHT22;1441;48.886;8.728;2022-10-16T05:15:16;15.80;99.90
2867;DHT22;1441;48.886;8.728;2022-10-16T05:17:42;15.90;99.90
2867;DHT22;1441;48.886;8.728;2022-10-16T05:20:08;16.00;99.90
2867;DHT22;1441;48.886;8.728;2022-10-16T05:22:33;16.10;99.90
2867;DHT22;1441;48.886;8.728;2022-10-16T05:24:59;16.20;99.90
2867;DHT22;1441;48.886;8.728;2022-10-16T05:27:24;16.30;99.90
2867;DHT22;1441;48.886;8.728;2022-10-16T05:29:50;16.30;99.90
2867;DHT22;1441;48.886;8.728;2022-10-16T05:32:17;16.30;99.90
2867;DHT22;1441;48.886;8.728;2022-10-16T05:34:43;16.30;99.90
2867;DHT22;1441;48.886;8.728;2022-10-16T05:37:09;16.10;99.90
2867;DHT22;1441;48.886;8.728;2022-10-16T05:39:34;15.90;99.90
2867;DHT22;1441;48.886;8.728;2022-10-16T05:42:00;15.70;99.90
2867;DHT22;1441;48.886;8.728;2022-10-16T05:44:25;15.60;99.90
2867;DHT22;1441;48.886;8.728;2022-10-16T05:46:51;15.60;99.90
2867;DHT22;1441;48.886;8.728;2022-10-16T05:49:16;15.50;99.90
2867;DHT22;1441;48.886;8.728;2022-10-16T05:51:42;15.50;99.90
2867;DHT22;1441;48.886;8.728;2022-10-16T05:54:09;15.60;99.90
2867;DHT22;1441;48.886;8.728;2022-10-16T05:56:34;15.60;99.90
2867;DHT22;1441;48.886;8.728;2022-10-16T05:59:00;15.60;99.90
2867;DHT22;1441;48.886;8.728;2022-10-16T06:01:26;15.60;99.90
2867;DHT22;1441;48.886;8.728;2022-10-16T06:03:52;15.60;99.90
2867;DHT22;1441;48.886;8.728;2022-10-16T06:06:22;15.60;99.90
2867;DHT22;1441;48.886;8.728;2022-10-16T06:08:49;15.50;99.90
2867;DHT22;1441;48.886;8.728;2022-10-16T06:11:17;15.40;99.90
2867;DHT22;1441;48.886;8.728;2022-10-16T06:13:43;15.60;99.90
2867;DHT22;1441;48.886;8.728;2022-10-16T06:16:11;15.70;99.90
2867;DHT22;1441;48.886;8.728;2022-10-16T06:18:38;15.80;99.90
2867;DHT22;1441;48.886;8.728;2022-10-16T06:21:12;15.60;99.90
2867;DHT22;1441;48.886;8.728;2022-10-16T06:23:39;15.50;99.90
2867;DHT22;1441;48.886;8.728;2022-10-16T06:26:09;15.40;99.90
2867;DHT22;1441;48.886;8.728;2022-10-16T06:28:35;15.40;99.90
2867;DHT22;1441;48.886;8.728;2022-10-16T06:31:02;15.40;99.90
2867;DHT22;1441;48.886;8.728;2022-10-16T06:33:28;15.40;99.90
2867;DHT22;1441;48.886;8.728;2022-10-16T06:35:53;15.50;99.90
2867;DHT22;1441;48.886;8.728;2022-10-16T06:38:19;15.50;99.90
2867;DHT22;1441;48.886;8.728;2022-10-16T06:40:44;15.50;99.90
2867;DHT22;1441;48.886;8.728;2022-10-16T06:43:10;15.50;99.90
2867;DHT22;1441;48.886;8.728;2022-10-16T06:45:35;15.60;99.90
2867;DHT22;1441;48.886;8.728;2022-10-16T06:48:02;15.60;99.90
2867;DHT22;1441;48.886;8.728;2022-10-16T06:50:27;15.60;99.90
2867;DHT22;1441;48.886;8.728;2022-10-16T06:52:53;15.60;99.90
2867;DHT22;1441;48.886;8.728;2022-10-16T06:55:18;15.60;99.90
2867;DHT22;1441;48.886;8.728;2022-10-16T06:57:46;15.60;99.90
2867;DHT22;1441;48.886;8.728;2022-10-16T07:00:12;15.60;99.90
2867;DHT22;1441;48.886;8.728;2022-10-16T07:02:38;15.70;99.90
2867;DHT22;1441;48.886;8.728;2022-10-16T07:05:03;15.80;99.90
2867;DHT22;1441;48.886;8.728;2022-10-16T07:07:29;15.90;99.90
2867;DHT22;1441;48.886;8.728;2022-10-16T07:09:55;15.90;99.90
2867;DHT22;1441;48.886;8.728;2022-10-16T07:12:20;15.90;99.90
2867;DHT22;1441;48.886;8.728;2022-10-16T07:14:46;15.90;99.90
2867;DHT22;1441;48.886;8.728;2022-10-16T07:17:11;15.80;99.90
2867;DHT22;1441;48.886;8.728;2022-10-16T07:19:37;15.90;99.90
2867;DHT22;1441;48.886;8.728;2022-10-16T07:22:03;15.90;99.90
2867;DHT22;1441;48.886;8.728;2022-10-16T07:24:28;16.30;99.90
2867;DHT22;1441;48.886;8.728;2022-10-16T07:26:54;16.50;99.90
2867;DHT22;1441;48.886;8.728;2022-10-16T07:29:21;16.40;99.90
2867;DHT22;1441;48.886;8.728;2022-10-16T07:31:47;16.50;99.90
2867;DHT22;1441;48.886;8.728;2022-10-16T07:34:15;16.80;99.90
2867;DHT22;1441;48.886;8.728;2022-10-16T07:36:41;17.00;99.90
2867;DHT22;1441;48.886;8.728;2022-10-16T07:39:06;17.30;99.90
2867;DHT22;1441;48.886;8.728;2022-10-16T07:41:32;17.50;99.10
2867;DHT22;1441;48.886;8.728;2022-10-16T07:44:01;17.60;98.70
2867;DHT22;1441;48.886;8.728;2022-10-16T07:46:28;17.80;98.00
2867;DHT22;1441;48.886;8.728;2022-10-16T07:48:54;17.90;97.40
2867;DHT22;1441;48.886;8.728;2022-10-16T07:51:22;18.00;97.30
2867;DHT22;1441;48.886;8.728;2022-10-16T07:53:48;18.50;96.80
2867;DHT22;1441;48.886;8.728;2022-10-16T07:56:15;19.10;93.70
2867;DHT22;1441;48.886;8.728;2022-10-16T07:58:40;19.20;93.20
2867;DHT22;1441;48.886;8.728;2022-10-16T08:01:08;19.30;93.40
2867;DHT22;1441;48.886;8.728;2022-10-16T08:03:35;19.10;94.20
2867;DHT22;1441;48.886;8.728;2022-10-16T08:06:03;19.40;92.50
2867;DHT22;1441;48.886;8.728;2022-10-16T08:08:30;19.50;91.80
2867;DHT22;1441;48.886;8.728;2022-10-16T08:10:55;19.40;93.00
2867;DHT22;1441;48.886;8.728;2022-10-16T08:13:21;19.50;92.30
2867;DHT22;1441;48.886;8.728;2022-10-16T08:15:47;19.60;92.90
2867;DHT22;1441;48.886;8.728;2022-10-16T08:18:14;19.40;92.50
2867;DHT22;1441;48.886;8.728;2022-10-16T08:20:40;19.30;92.30
2867;DHT22;1441;48.886;8.728;2022-10-16T08:23:07;19.40;92.10
2867;DHT22;1441;48.886;8.728;2022-10-16T08:25:35;19.30;92.10
2867;DHT22;1441;48.886;8.728;2022-10-16T08:28:04;19.40;91.60
2867;DHT22;1441;48.886;8.728;2022-10-16T08:30:30;19.40;91.90
2867;DHT22;1441;48.886;8.728;2022-10-16T08:32:55;19.30;92.10
2867;DHT22;1441;48.886;8.728;2022-10-16T08:35:21;19.20;92.40
2867;DHT22;1441;48.886;8.728;2022-10-16T08:37:46;19.10;92.90
2867;DHT22;1441;48.886;8.728;2022-10-16T08:40:19;19.00;93.40
2867;DHT22;1441;48.886;8.728;2022-10-16T08:51:04;19.30;92.20
2867;DHT22;1441;48.886;8.728;2022-10-16T08:56:17;19.40;91.90
2867;DHT22;1441;48.886;8.728;2022-10-16T08:58:45;19.40;92.00
2867;DHT22;1441;48.886;8.728;2022-10-16T09:01:14;19.40;91.70
2867;DHT22;1441;48.886;8.728;2022-10-16T09:03:52;19.70;90.80
2867;DHT22;1441;48.886;8.728;2022-10-16T09:06:41;19.90;90.10
2867;DHT22;1441;48.886;8.728;2022-10-16T09:09:28;20.10;89.20
2867;DHT22;1441;48.886;8.728;2022-10-16T09:14:50;20.30;89.40
2867;DHT22;1441;48.886;8.728;2022-10-16T09:19:53;20.60;89.00
2867;DHT22;1441;48.886;8.728;2022-10-16T09:22:26;20.80;87.40
2867;DHT22;1441;48.886;8.728;2022-10-16T09:24:55;21.00;86.80
2867;DHT22;1441;48.886;8.728;2022-10-16T09:27:24;21.10;86.80
2867;DHT22;1441;48.886;8.728;2022-10-16T09:29:51;21.10;86.50
2867;DHT22;1441;48.886;8.728;2022-10-16T09:32:21;21.00;86.50
2867;DHT22;1441;48.886;8.728;2022-10-16T09:34:50;21.00;87.20
2867;DHT22;1441;48.886;8.728;2022-10-16T09:37:20;21.20;86.60
2867;DHT22;1441;48.886;8.728;2022-10-16T09:39:51;21.30;86.40
2867;DHT22;1441;48.886;8.728;2022-10-16T09:42:19;21.50;85.20
2867;DHT22;1441;48.886;8.728;2022-10-16T09:44:50;21.40;85.30
2867;DHT22;1441;48.886;8.728;2022-10-16T09:47:19;21.50;85.60
2867;DHT22;1441;48.886;8.728;2022-10-16T09:49:58;21.30;88.20
2867;DHT22;1441;48.886;8.728;2022-10-16T09:52:28;21.20;88.20
2867;DHT22;1441;48.886;8.728;2022-10-16T09:54:54;21.10;88.40
2867;DHT22;1441;48.886;8.728;2022-10-16T09:57:58;21.30;86.60
2867;DHT22;1441;48.886;8.728;2022-10-16T10:00:24;21.40;88.00
2867;DHT22;1441;48.886;8.728;2022-10-16T10:02:54;21.50;89.00
2867;DHT22;1441;48.886;8.728;2022-10-16T10:05:25;21.70;90.40
2867;DHT22;1441;48.886;8.728;2022-10-16T10:08:00;21.80;89.80
2867;DHT22;1441;48.886;8.728;2022-10-16T10:10:29;21.90;88.90
2867;DHT22;1441;48.886;8.728;2022-10-16T10:12:56;21.90;88.10
2867;DHT22;1441;48.886;8.728;2022-10-16T10:15:22;21.90;88.40
2867;DHT22;1441;48.886;8.728;2022-10-16T10:17:51;21.80;89.20
2867;DHT22;1441;48.886;8.728;2022-10-16T10:20:36;21.80;89.40
2867;DHT22;1441;48.886;8.728;2022-10-16T10:23:24;21.90;88.00
2867;DHT22;1441;48.886;8.728;2022-10-16T10:28:42;22.00;88.60
2867;DHT22;1441;48.886;8.728;2022-10-16T10:31:34;22.00;87.80
2867;DHT22;1441;48.886;8.728;2022-10-16T10:36:52;22.00;88.20
2867;DHT22;1441;48.886;8.728;2022-10-16T10:39:36;22.10;86.00
2867;DHT22;1441;48.886;8.728;2022-10-16T10:42:30;22.20;85.50
2867;DHT22;1441;48.886;8.728;2022-10-16T10:45:03;22.10;85.00
2867;DHT22;1441;48.886;8.728;2022-10-16T10:47:56;22.00;83.60
2867;DHT22;1441;48.886;8.728;2022-10-16T10:53:22;21.70;85.80
2867;DHT22;1441;48.886;8.728;2022-10-16T11:01:56;21.70;85.00
2867;DHT22;1441;48.886;8.728;2022-10-16T11:07:30;21.90;84.50
2867;DHT22;1441;48.886;8.728;2022-10-16T11:10:03;21.90;86.70
2867;DHT22;1441;48.886;8.728;2022-10-16T11:12:42;22.00;86.50
2867;DHT22;1441;48.886;8.728;2022-10-16T11:20:28;22.80;80.90
2867;DHT22;1441;48.886;8.728;2022-10-16T11:23:20;22.90;81.60
2867;DHT22;1441;48.886;8.728;2022-10-16T11:25:48;22.80;83.40
2867;DHT22;1441;48.886;8.728;2022-10-16T11:28:28;22.70;85.20
2867;DHT22;1441;48.886;8.728;2022-10-16T11:31:08;22.70;84.00
2867;DHT22;1441;48.886;8.728;2022-10-16T11:36:11;22.60;86.00
2867;DHT22;1441;48.886;8.728;2022-10-16T11:38:53;22.60;85.10
2867;DHT22;1441;48.886;8.728;2022-10-16T11:41:32;22.70;83.50
2867;DHT22;1441;48.886;8.728;2022-10-16T11:44:31;22.80;83.60
2867;DHT22;1441;48.886;8.728;2022-10-16T11:49:46;23.10;81.90
2867;DHT22;1441;48.886;8.728;2022-10-16T11:52:20;23.20;81.00
2867;DHT22;1441;48.886;8.728;2022-10-16T11:57:49;23.20;80.70
2867;DHT22;1441;48.886;8.728;2022-10-16T12:00:44;23.30;80.00
2867;DHT22;1441;48.886;8.728;2022-10-16T12:06:34;23.10;82.80
2867;DHT22;1441;48.886;8.728;2022-10-16T12:09:03;23.10;82.00
2867;DHT22;1441;48.886;8.728;2022-10-16T12:16:50;23.30;81.60
2867;DHT22;1441;48.886;8.728;2022-10-16T12:19:17;23.20;81.50
2867;DHT22;1441;48.886;8.728;2022-10-16T12:21:43;23.00;82.10
2867;DHT22;1441;48.886;8.728;2022-10-16T12:24:35;23.00;82.80
2867;DHT22;1441;48.886;8.728;2022-10-16T12:27:02;22.90;82.20
2867;DHT22;1441;48.886;8.728;2022-10-16T12:29:41;22.90;81.50
2867;DHT22;1441;48.886;8.728;2022-10-16T12:32:25;22.80;83.60
2867;DHT22;1441;48.886;8.728;2022-10-16T12:34:52;22.90;81.10
2867;DHT22;1441;48.886;8.728;2022-10-16T12:37:33;22.80;83.30
2867;DHT22;1441;48.886;8.728;2022-10-16T12:39:59;22.60;81.70
2867;DHT22;1441;48.886;8.728;2022-10-16T12:42:37;22.50;84.90
2867;DHT22;1441;48.886;8.728;2022-10-16T12:47:51;22.40;85.50
2867;DHT22;1441;48.886;8.728;2022-10-16T12:50:46;22.60;83.80
2867;DHT22;1441;48.886;8.728;2022-10-16T12:53:21;22.70;82.60
2867;DHT22;1441;48.886;8.728;2022-10-16T12:56:03;22.70;82.60
2867;DHT22;1441;48.886;8.728;2022-10-16T13:04:20;22.40;86.00
2867;DHT22;1441;48.886;8.728;2022-10-16T13:20:26;22.50;85.10
2867;DHT22;1441;48.886;8.728;2022-10-16T13:22:56;22.50;84.90
2867;DHT22;1441;48.886;8.728;2022-10-16T13:25:44;22.40;86.20
2867;DHT22;1441;48.886;8.728;2022-10-16T13:28:13;22.30;85.00
2867;DHT22;1441;48.886;8.728;2022-10-16T13:30:52;22.30;84.00
2867;DHT22;1441;48.886;8.728;2022-10-16T13:35:57;22.70;81.40
2867;DHT22;1441;48.886;8.728;2022-10-16T13:38:25;22.70;81.90
2867;DHT22;1441;48.886;8.728;2022-10-16T13:40:57;22.60;82.90
2867;DHT22;1441;48.886;8.728;2022-10-16T13:43:49;22.50;83.60
2867;DHT22;1441;48.886;8.728;2022-10-16T13:46:17;22.50;83.00
2867;DHT22;1441;48.886;8.728;2022-10-16T13:48:43;22.60;82.90
2867;DHT22;1441;48.886;8.728;2022-10-16T13:51:15;22.60;83.20
2867;DHT22;1441;48.886;8.728;2022-10-16T13:53:42;22.70;84.00
2867;DHT22;1441;48.886;8.728;2022-10-16T13:56:17;22.70;84.30
2867;DHT22;1441;48.886;8.728;2022-10-16T13:58:43;22.70;84.30
2867;DHT22;1441;48.886;8.728;2022-10-16T14:01:19;22.60;84.80
2867;DHT22;1441;48.886;8.728;2022-10-16T14:03:46;22.60;84.60
2867;DHT22;1441;48.886;8.728;2022-10-16T14:06:30;22.60;85.40
2867;DHT22;1441;48.886;8.728;2022-10-16T14:09:06;22.50;85.30
2867;DHT22;1441;48.886;8.728;2022-10-16T14:11:33;22.50;85.60
2867;DHT22;1441;48.886;8.728;2022-10-16T14:14:02;22.40;85.80
2867;DHT22;1441;48.886;8.728;2022-10-16T14:16:30;22.30;86.70
2867;DHT22;1441;48.886;8.728;2022-10-16T14:19:04;22.30;86.60
2867;DHT22;1441;48.886;8.728;2022-10-16T14:21:35;22.40;86.10
2867;DHT22;1441;48.886;8.728;2022-10-16T14:24:22;22.40;85.90
2867;DHT22;1441;48.886;8.728;2022-10-16T14:26:49;22.30;85.80
2867;DHT22;1441;48.886;8.728;2022-10-16T14:29:19;22.30;86.20
2867;DHT22;1441;48.886;8.728;2022-10-16T14:32:20;22.30;86.30
2867;DHT22;1441;48.886;8.728;2022-10-16T14:34:53;22.30;86.50
2867;DHT22;1441;48.886;8.728;2022-10-16T14:37:23;22.50;86.60
2867;DHT22;1441;48.886;8.728;2022-10-16T14:39:50;22.50;85.60
2867;DHT22;1441;48.886;8.728;2022-10-16T14:42:21;22.60;85.70
2867;DHT22;1441;48.886;8.728;2022-10-16T14:44:50;22.70;86.10
2867;DHT22;1441;48.886;8.728;2022-10-16T14:47:22;22.80;86.50
2867;DHT22;1441;48.886;8.728;2022-10-16T14:49:51;22.80;86.20
2867;DHT22;1441;48.886;8.728;2022-10-16T14:52:17;22.80;86.20
2867;DHT22;1441;48.886;8.728;2022-10-16T14:54:43;22.80;86.30
2867;DHT22;1441;48.886;8.728;2022-10-16T14:57:20;22.80;85.10
2867;DHT22;1441;48.886;8.728;2022-10-16T14:59:48;22.70;85.60
2867;DHT22;1441;48.886;8.728;2022-10-16T15:04:54;22.30;86.80
2867;DHT22;1441;48.886;8.728;2022-10-16T15:07:19;22.20;87.20
2867;DHT22;1441;48.886;8.728;2022-10-16T15:09:45;22.20;87.60
2867;DHT22;1441;48.886;8.728;2022-10-16T15:12:10;22.10;88.20
2867;DHT22;1441;48.886;8.728;2022-10-16T15:14:36;22.10;88.10
2867;DHT22;1441;48.886;8.728;2022-10-16T15:17:02;22.00;88.50
2867;DHT22;1441;48.886;8.728;2022-10-16T15:19:29;22.00;89.00
2867;DHT22;1441;48.886;8.728;2022-10-16T15:21:54;21.80;89.40
2867;DHT22;1441;48.886;8.728;2022-10-16T15:24:20;21.70;89.70
2867;DHT22;1441;48.886;8.728;2022-10-16T15:26:45;21.70;89.90
2867;DHT22;1441;48.886;8.728;2022-10-16T15:29:12;21.70;89.80
2867;DHT22;1441;48.886;8.728;2022-10-16T15:31:38;21.70;89.90
2867;DHT22;1441;48.886;8.728;2022-10-16T15:34:04;21.70;89.40
2867;DHT22;1441;48.886;8.728;2022-10-16T15:36:35;21.60;90.00
2867;DHT22;1441;48.886;8.728;2022-10-16T15:39:20;21.60;90.30
2867;DHT22;1441;48.886;8.728;2022-10-16T15:41:47;21.50;90.50
2867;DHT22;1441;48.886;8.728;2022-10-16T15:44:19;21.50;90.50
2867;DHT22;1441;48.886;8.728;2022-10-16T15:46:45;21.50;90.70
2867;DHT22;1441;48.886;8.728;2022-10-16T15:49:11;21.40;90.80
2867;DHT22;1441;48.886;8.728;2022-10-16T15:51:41;21.40;91.00
2867;DHT22;1441;48.886;8.728;2022-10-16T15:54:07;21.40;91.10
2867;DHT22;1441;48.886;8.728;2022-10-16T15:56:33;21.30;91.60
2867;DHT22;1441;48.886;8.728;2022-10-16T15:58:59;21.20;91.60
2867;DHT22;1441;48.886;8.728;2022-10-16T16:01:26;21.10;92.10
2867;DHT22;1441;48.886;8.728;2022-10-16T16:03:55;21.00;92.50
2867;DHT22;1441;48.886;8.728;2022-10-16T16:06:22;20.90;92.70
2867;DHT22;1441;48.886;8.728;2022-10-16T16:08:50;20.90;92.60
2867;DHT22;1441;48.886;8.728;2022-10-16T16:11:16;20.80;93.10
2867;DHT22;1441;48.886;8.728;2022-10-16T16:13:42;20.70;93.30
2867;DHT22;1441;48.886;8.728;2022-10-16T16:16:10;20.70;93.30
2867;DHT22;1441;48.886;8.728;2022-10-16T16:18:36;20.70;93.60
2867;DHT22;1441;48.886;8.728;2022-10-16T16:21:02;20.60;93.60
2867;DHT22;1441;48.886;8.728;2022-10-16T16:23:27;20.60;93.70
2867;DHT22;1441;48.886;8.728;2022-10-16T16:26:12;20.50;93.60
2867;DHT22;1441;48.886;8.728;2022-10-16T16:28:39;20.50;94.00
2867;DHT22;1441;48.886;8.728;2022-10-16T16:31:05;20.40;94.40
2867;DHT22;1441;48.886;8.728;2022-10-16T16:33:30;20.20;94.60
2867;DHT22;1441;48.886;8.728;2022-10-16T16:36:01;20.20;94.60
2867;DHT22;1441;48.886;8.728;2022-10-16T16:38:27;20.10;94.80
2867;DHT22;1441;48.886;8.728;2022-10-16T16:40:53;20.00;95.10
2867;DHT22;1441;48.886;8.728;2022-10-16T16:43:22;20.00;95.30
2867;DHT22;1441;48.886;8.728;2022-10-16T16:45:47;19.90;95.30
2867;DHT22;1441;48.886;8.728;2022-10-16T16:48:13;19.90;95.50
2867;DHT22;1441;48.886;8.728;2022-10-16T16:50:38;19.80;95.20
2867;DHT22;1441;48.886;8.728;2022-10-16T16:53:04;19.80;95.40
2867;DHT22;1441;48.886;8.728;2022-10-16T16:55:29;19.80;95.50
2867;DHT22;1441;48.886;8.728;2022-10-16T16:57:55;19.70;95.50
2867;DHT22;1441;48.886;8.728;2022-10-16T17:00:22;19.70;95.60
2867;DHT22;1441;48.886;8.728;2022-10-16T17:02:49;19.70;95.70
2867;DHT22;1441;48.886;8.728;2022-10-16T17:05:15;19.60;95.90
2867;DHT22;1441;48.886;8.728;2022-10-16T17:07:41;19.60;96.00
2867;DHT22;1441;48.886;8.728;2022-10-16T17:10:07;19.50;96.20
2867;DHT22;1441;48.886;8.728;2022-10-16T17:12:33;19.40;96.50
2867;DHT22;1441;48.886;8.728;2022-10-16T17:14:59;19.40;96.90
2867;DHT22;1441;48.886;8.728;2022-10-16T17:17:25;19.40;96.40
2867;DHT22;1441;48.886;8.728;2022-10-16T17:19:50;19.40;96.60
2867;DHT22;1441;48.886;8.728;2022-10-16T17:22:17;19.30;96.70
2867;DHT22;1441;48.886;8.728;2022-10-16T17:24:42;19.30;96.70
2867;DHT22;1441;48.886;8.728;2022-10-16T17:27:08;19.20;96.90
2867;DHT22;1441;48.886;8.728;2022-10-16T17:29:34;19.20;96.90
2867;DHT22;1441;48.886;8.728;2022-10-16T17:32:00;19.20;96.90
2867;DHT22;1441;48.886;8.728;2022-10-16T17:34:28;19.10;97.20
2867;DHT22;1441;48.886;8.728;2022-10-16T17:36:54;19.00;97.40
2867;DHT22;1441;48.886;8.728;2022-10-16T17:39:19;19.10;97.20
2867;DHT22;1441;48.886;8.728;2022-10-16T17:41:46;19.00;97.20
2867;DHT22;1441;48.886;8.728;2022-10-16T17:44:13;18.90;97.70
2867;DHT22;1441;48.886;8.728;2022-10-16T17:46:45;18.80;98.00